Time;durP1;ratioP1;P1;durP2;ratioP2;P2;SDS_P1;SDS_P2;PMS_P1;PMS_P2;Temp;Humidity;BMP_temperature;BMP_pressure;BME280_temperature;BME280_humidity;BME280_pressure;Samples;Min_cycle;Max_cycle;Signal;HPM_P1;HPM_P2
2023/12/20 00:00:45;;;;;;;8.70;3.77;;;16.40;65.00;;;;;;5016760;28;20436;-76
2023/12/20 00:03:15;;;;;;;4.23;3.50;;;16.40;65.00;;;;;;5003754;28;20446;-76
2023/12/20 00:05:43;;;;;;;4.90;3.03;;;16.40;64.80;;;;;;5001471;28;20448;-76
2023/12/20 00:08:11;;;;;;;6.50;3.57;;;16.40;64.50;;;;;;5003878;28;20539;-76
2023/12/20 00:10:41;;;;;;;6.80;3.60;;;16.40;64.60;;;;;;5008420;28;20472;-76
2023/12/20 00:13:09;;;;;;;5.07;3.60;;;16.30;64.50;;;;;;5007406;28;20453;-76
2023/12/20 00:15:37;;;;;;;3.97;3.37;;;16.30;64.40;;;;;;5008852;28;20528;-77
2023/12/20 00:18:05;;;;;;;6.00;3.27;;;16.30;64.20;;;;;;5005199;28;20493;-77
2023/12/20 00:20:34;;;;;;;5.30;3.30;;;16.30;64.30;;;;;;5007574;28;20432;-77
2023/12/20 00:23:03;;;;;;;4.10;3.70;;;16.30;64.20;;;;;;5004228;28;20520;-77
2023/12/20 00:25:30;;;;;;;3.50;3.20;;;16.20;64.10;;;;;;5005673;28;20438;-77
2023/12/20 00:27:58;;;;;;;4.90;3.37;;;16.20;64.50;;;;;;5022724;28;20455;-76
2023/12/20 00:30:26;;;;;;;4.47;3.10;;;16.30;64.40;;;;;;5007938;28;20531;-77
2023/12/20 00:32:54;;;;;;;5.47;3.50;;;16.20;63.90;;;;;;5009475;28;20455;-76
2023/12/20 00:35:21;;;;;;;4.93;3.10;;;16.20;63.90;;;;;;5004955;28;20436;-76
2023/12/20 00:37:51;;;;;;;7.23;3.23;;;16.20;63.90;;;;;;5005304;28;20495;-76
2023/12/20 00:40:18;;;;;;;4.60;3.40;;;16.20;64.80;;;;;;5004965;28;20464;-77
2023/12/20 00:42:46;;;;;;;7.70;3.30;;;16.20;63.90;;;;;;5004203;28;20449;-77
2023/12/20 00:45:14;;;;;;;6.43;3.90;;;16.20;63.70;;;;;;5013309;28;20539;-76
2023/12/20 00:47:43;;;;;;;6.80;3.63;;;16.20;63.70;;;;;;5012310;28;20465;-77
2023/12/20 00:50:11;;;;;;;4.93;3.30;;;16.10;64.30;;;;;;5004846;28;20456;-76
2023/12/20 00:52:39;;;;;;;4.50;2.90;;;16.20;63.80;;;;;;5010889;28;20534;-76
2023/12/20 00:55:09;;;;;;;5.50;3.30;;;16.20;63.60;;;;;;5008173;28;20539;-76
2023/12/20 00:57:36;;;;;;;6.20;3.30;;;16.20;63.70;;;;;;5012524;28;20527;-76
2023/12/20 01:00:05;;;;;;;6.17;3.30;;;16.10;63.50;;;;;;4999149;28;20472;-76
2023/12/20 01:02:33;;;;;;;6.40;3.17;;;16.10;63.80;;;;;;5004297;28;20459;-76
2023/12/20 01:05:02;;;;;;;4.47;2.70;;;16.10;63.20;;;;;;5006679;28;20456;-76
2023/12/20 01:07:30;;;;;;;6.53;3.67;;;16.10;63.70;;;;;;5005286;28;20563;-76
2023/12/20 01:09:58;;;;;;;3.67;2.90;;;16.10;63.80;;;;;;5005446;28;20508;-76
2023/12/20 01:12:27;;;;;;;6.43;2.83;;;16.10;63.70;;;;;;5008037;28;20482;-76
2023/12/20 01:14:55;;;;;;;6.80;3.20;;;16.10;63.60;;;;;;5006686;28;20516;-76
2023/12/20 01:17:23;;;;;;;5.73;3.00;;;16.10;63.40;;;;;;5001505;28;20488;-76
2023/12/20 01:19:51;;;;;;;4.50;3.20;;;16.10;63.70;;;;;;5010891;28;20448;-75
2023/12/20 01:22:19;;;;;;;6.80;3.57;;;16.10;63.40;;;;;;5004799;28;20444;-76
2023/12/20 01:24:48;;;;;;;7.60;3.00;;;16.10;63.70;;;;;;5012501;28;20451;-76
2023/12/20 01:27:16;;;;;;;5.07;2.90;;;16.10;63.30;;;;;;5004025;28;20479;-76
2023/12/20 01:29:45;;;;;;;6.37;2.40;;;16.00;63.40;;;;;;5001931;28;20488;-76
2023/12/20 01:32:13;;;;;;;7.40;2.90;;;16.00;63.60;;;;;;5001048;28;20495;-76
2023/12/20 01:34:41;;;;;;;6.57;2.93;;;16.00;63.20;;;;;;5009208;28;20449;-76
2023/12/20 01:37:09;;;;;;;7.17;3.20;;;16.00;63.10;;;;;;5000393;28;20477;-76
2023/12/20 01:39:37;;;;;;;4.37;2.60;;;16.00;63.20;;;;;;5045813;22;20487;-78
2023/12/20 01:42:11;;;;;;;4.30;3.27;;;16.00;63.40;;;;;;5020939;28;20519;-79
2023/12/20 01:44:47;;;;;;;6.13;2.90;;;16.00;63.20;;;;;;5025797;28;20448;-78
2023/12/20 01:47:19;;;;;;;6.10;2.80;;;16.00;63.20;;;;;;5030928;28;20443;-77
2023/12/20 01:49:47;;;;;;;8.80;3.10;;;16.00;63.40;;;;;;5028752;28;20463;-78
2023/12/20 01:52:15;;;;;;;5.07;2.57;;;15.90;62.90;;;;;;5029406;28;20499;-78
2023/12/20 01:54:54;;;;;;;8.67;3.13;;;15.90;62.90;;;;;;5025220;28;20472;-78
2023/12/20 01:57:24;;;;;;;4.73;3.37;;;15.90;62.70;;;;;;5029042;28;20458;-80
2023/12/20 02:00:03;;;;;;;5.77;2.90;;;15.90;63.00;;;;;;5026257;28;20472;-79
2023/12/20 02:02:31;;;;;;;3.80;2.37;;;15.90;63.00;;;;;;5027158;28;20456;-79
2023/12/20 02:05:00;;;;;;;4.83;3.03;;;15.90;62.80;;;;;;5024999;28;20471;-77
2023/12/20 02:07:29;;;;;;;3.70;2.67;;;15.90;62.80;;;;;;5028906;28;20554;-78
2023/12/20 02:09:58;;;;;;;4.60;3.03;;;15.90;62.80;;;;;;5021530;28;20475;-77
2023/12/20 02:12:26;;;;;;;3.97;2.63;;;15.90;62.60;;;;;;5018101;28;20732;-80
2023/12/20 02:14:56;;;;;;;9.50;2.33;;;15.90;62.80;;;;;;5027987;28;20486;-81
2023/12/20 02:17:23;;;;;;;7.07;2.87;;;15.90;62.80;;;;;;5023510;28;20432;-76
2023/12/20 02:19:52;;;;;;;6.87;2.87;;;15.90;62.90;;;;;;5026498;28;20506;-76
2023/12/20 02:22:21;;;;;;;2.43;2.23;;;15.90;62.80;;;;;;5029251;28;20454;-78
2023/12/20 02:24:49;;;;;;;3.97;2.57;;;15.80;62.90;;;;;;5020861;28;20461;-78
2023/12/20 02:27:18;;;;;;;7.43;2.27;;;15.90;63.00;;;;;;5025990;28;20458;-77
2023/12/20 02:29:47;;;;;;;5.00;2.40;;;15.90;63.10;;;;;;5020706;28;20531;-79
2023/12/20 02:32:15;;;;;;;4.07;2.27;;;15.90;62.90;;;;;;5020632;28;20463;-79
2023/12/20 02:34:44;;;;;;;7.00;2.70;;;15.90;62.90;;;;;;5019122;28;20439;-78
2023/12/20 02:37:12;;;;;;;4.73;2.10;;;15.90;62.90;;;;;;5016811;28;20451;-78
2023/12/20 02:39:46;;;;;;;3.70;2.77;;;15.90;62.90;;;;;;5024756;28;20567;-82
2023/12/20 02:42:19;;;;;;;4.30;2.10;;;15.90;62.80;;;;;;5018953;28;20486;-80
2023/12/20 02:44:47;;;;;;;4.53;2.00;;;15.90;62.90;;;;;;5031426;28;20497;-79
2023/12/20 02:47:16;;;;;;;2.67;1.93;;;15.90;62.90;;;;;;5020255;28;20479;-82
2023/12/20 02:49:44;;;;;;;8.97;2.80;;;15.90;62.60;;;;;;5023900;28;20467;-79
2023/12/20 02:52:13;;;;;;;6.57;2.30;;;15.80;62.90;;;;;;5031540;28;20521;-81
2023/12/20 02:54:41;;;;;;;4.57;2.10;;;15.80;62.90;;;;;;5029776;28;20452;-80
2023/12/20 02:57:11;;;;;;;5.20;2.37;;;15.90;63.90;;;;;;5020659;28;20449;-80
2023/12/20 02:59:39;;;;;;;3.37;2.10;;;15.80;63.00;;;;;;5015964;28;20464;-80
2023/12/20 03:02:07;;;;;;;2.57;1.90;;;15.80;63.10;;;;;;5023867;28;20447;-79
2023/12/20 03:04:35;;;;;;;4.60;2.30;;;15.90;63.20;;;;;;5033107;28;20446;-81
2023/12/20 03:07:03;;;;;;;3.70;2.30;;;15.90;62.80;;;;;;5030505;28;20456;-82
2023/12/20 03:09:32;;;;;;;3.63;2.03;;;15.80;63.00;;;;;;5026098;28;20494;-81
2023/12/20 03:12:21;;;;;;;3.27;2.20;;;15.80;63.00;;;;;;5033929;28;20466;-80
2023/12/20 03:14:50;;;;;;;2.20;2.00;;;15.80;63.40;;;;;;5024826;28;20432;-79
2023/12/20 03:17:18;;;;;;;7.40;2.70;;;15.80;63.20;;;;;;5025568;28;20439;-82
2023/12/20 03:19:46;;;;;;;5.80;1.97;;;15.80;63.30;;;;;;5031648;28;20504;-80
2023/12/20 03:22:16;;;;;;;2.70;1.93;;;15.80;63.40;;;;;;5033403;28;20451;-79
2023/12/20 03:24:44;;;;;;;6.30;2.50;;;15.90;63.40;;;;;;5033858;28;20461;-81
2023/12/20 03:27:14;;;;;;;4.03;2.10;;;15.90;63.20;;;;;;5038687;28;20439;-86
2023/12/20 03:29:46;;;;;;;3.67;2.10;;;15.90;63.20;;;;;;5036281;28;20479;-79
2023/12/20 03:32:17;;;;;;;4.27;1.90;;;15.90;63.30;;;;;;5034989;28;20505;-79
2023/12/20 03:34:45;;;;;;;2.50;1.80;;;15.90;63.50;;;;;;5032091;28;20888;-78
2023/12/20 03:37:17;;;;;;;2.23;1.80;;;15.90;63.50;;;;;;5027486;28;20451;-80
2023/12/20 03:39:45;;;;;;;3.33;2.00;;;15.90;63.50;;;;;;5030844;28;20471;-78
2023/12/20 03:42:16;;;;;;;3.17;2.00;;;15.90;63.30;;;;;;5020754;28;20448;-79
2023/12/20 03:44:50;;;;;;;6.30;2.40;;;15.90;63.60;;;;;;5029977;28;20946;-78
2023/12/20 03:47:18;;;;;;;6.47;2.03;;;15.90;63.30;;;;;;5029938;28;20456;-81
2023/12/20 03:49:46;;;;;;;7.30;2.30;;;15.90;63.50;;;;;;5027446;28;20567;-80
2023/12/20 03:52:15;;;;;;;6.23;2.03;;;15.90;63.70;;;;;;5031533;28;20485;-77
2023/12/20 03:54:43;;;;;;;2.50;2.00;;;15.90;63.60;;;;;;5031434;28;20443;-76
2023/12/20 03:57:12;;;;;;;3.27;1.67;;;15.90;63.60;;;;;;5021886;28;20476;-79
2023/12/20 03:59:40;;;;;;;4.77;1.87;;;15.90;63.60;;;;;;5023339;28;20482;-77
2023/12/20 04:02:10;;;;;;;3.13;1.73;;;15.90;63.80;;;;;;5032039;28;20471;-78
2023/12/20 04:04:38;;;;;;;6.53;1.93;;;15.90;63.60;;;;;;5023948;28;20517;-79
2023/12/20 04:07:06;;;;;;;3.57;1.63;;;15.90;63.80;;;;;;5030344;28;20447;-79
2023/12/20 04:09:34;;;;;;;5.67;1.83;;;15.90;63.60;;;;;;5016404;28;20465;-77
2023/12/20 04:12:02;;;;;;;3.73;1.93;;;15.90;63.80;;;;;;5028405;28;20501;-77
2023/12/20 04:14:30;;;;;;;2.33;1.83;;;15.90;63.70;;;;;;5026098;28;20502;-77
2023/12/20 04:16:58;;;;;;;3.53;1.60;;;15.90;63.60;;;;;;5031413;28;20569;-77
2023/12/20 04:19:32;;;;;;;2.80;1.90;;;15.90;63.60;;;;;;5025127;28;20472;-78
2023/12/20 04:22:01;;;;;;;2.60;1.90;;;15.90;63.50;;;;;;5018624;28;20468;-78
2023/12/20 04:24:31;;;;;;;2.03;1.63;;;15.90;63.70;;;;;;5029720;28;20510;-77
2023/12/20 04:26:59;;;;;;;3.60;2.23;;;15.80;63.70;;;;;;5027146;28;20505;-77
2023/12/20 04:29:26;;;;;;;3.57;1.90;;;15.90;63.80;;;;;;5023115;28;20463;-77
2023/12/20 04:31:56;;;;;;;4.30;2.00;;;15.80;63.70;;;;;;5029536;28;20443;-76
2023/12/20 04:34:24;;;;;;;2.93;1.60;;;15.90;63.80;;;;;;5030604;28;20475;-78
2023/12/20 04:36:55;;;;;;;5.60;2.30;;;15.90;64.50;;;;;;5027167;28;20574;-79
2023/12/20 04:39:26;;;;;;;6.47;1.90;;;15.80;63.40;;;;;;5022362;28;20474;-79
2023/12/20 04:42:00;;;;;;;3.93;1.97;;;15.80;63.90;;;;;;5015352;28;20449;-78
2023/12/20 04:44:34;;;;;;;3.90;2.20;;;15.90;64.00;;;;;;5023587;28;20440;-78
2023/12/20 04:47:05;;;;;;;4.87;1.67;;;15.90;63.60;;;;;;5015172;28;20464;-79
2023/12/20 04:49:38;;;;;;;7.33;2.33;;;15.80;63.70;;;;;;5024820;28;20470;-78
2023/12/20 04:52:15;;;;;;;3.43;1.43;;;15.80;63.60;;;;;;5018390;28;20501;-78
2023/12/20 04:54:48;;;;;;;6.20;1.70;;;15.80;63.70;;;;;;5023579;28;20552;-80
2023/12/20 04:57:19;;;;;;;7.90;2.00;;;15.80;63.90;;;;;;5025386;28;20483;-78
2023/12/20 04:59:47;;;;;;;4.10;1.63;;;15.80;63.90;;;;;;5023157;28;20463;-78
2023/12/20 05:02:18;;;;;;;3.00;2.10;;;15.80;63.90;;;;;;5021953;28;20444;-77
2023/12/20 05:04:46;;;;;;;8.60;2.00;;;15.90;63.90;;;;;;5026484;28;20451;-79
2023/12/20 05:07:15;;;;;;;3.53;1.70;;;15.90;63.90;;;;;;5021583;28;20460;-79
2023/12/20 05:09:47;;;;;;;5.90;2.00;;;15.80;63.70;;;;;;5023214;28;20479;-78
2023/12/20 05:12:18;;;;;;;4.63;1.90;;;15.80;63.90;;;;;;5016422;28;20452;-78
2023/12/20 05:14:46;;;;;;;5.57;1.90;;;15.80;64.10;;;;;;5028836;28;20835;-79
2023/12/20 05:17:33;;;;;;;6.20;2.10;;;15.90;63.90;;;;;;5017184;28;20437;-79
2023/12/20 05:20:04;;;;;;;3.10;1.83;;;15.80;63.70;;;;;;5016443;28;20471;-79
2023/12/20 05:22:39;;;;;;;4.20;2.23;;;15.80;64.00;;;;;;5026130;28;20542;-78
2023/12/20 05:25:20;;;;;;;3.13;1.73;;;15.80;64.00;;;;;;5026629;28;20477;-79
2023/12/20 05:27:52;;;;;;;5.00;1.60;;;15.80;63.60;;;;;;5014428;28;20455;-81
2023/12/20 05:30:21;;;;;;;9.10;2.20;;;15.80;64.00;;;;;;5019745;28;20563;-79
2023/12/20 05:32:49;;;;;;;3.30;1.87;;;15.80;63.90;;;;;;5021707;28;20447;-79
2023/12/20 05:35:19;;;;;;;6.20;2.30;;;15.80;64.30;;;;;;5025067;28;20983;-79
2023/12/20 05:37:51;;;;;;;7.77;2.00;;;15.80;64.10;;;;;;5015928;28;20452;-78
2023/12/20 05:40:22;;;;;;;5.67;2.10;;;15.80;63.70;;;;;;5018873;28;20475;-77
2023/12/20 05:42:54;;;;;;;9.93;2.43;;;15.80;63.80;;;;;;5015050;28;20444;-77
2023/12/20 05:45:24;;;;;;;7.57;1.97;;;15.80;63.90;;;;;;5018519;28;20432;-78
2023/12/20 05:47:54;;;;;;;8.80;2.30;;;15.80;64.20;;;;;;5020843;28;20452;-81
2023/12/20 05:50:25;;;;;;;8.60;1.70;;;15.80;64.10;;;;;;5020755;28;20481;-78
2023/12/20 05:52:58;;;;;;;6.00;2.10;;;15.80;63.90;;;;;;5027183;28;20876;-81
2023/12/20 05:55:25;;;;;;;5.60;1.77;;;15.80;63.90;;;;;;5015988;28;20697;-79
2023/12/20 05:57:53;;;;;;;7.90;2.37;;;15.80;64.00;;;;;;5017643;28;20436;-77
2023/12/20 06:00:25;;;;;;;7.37;2.40;;;15.80;64.00;;;;;;5024855;28;20453;-79
2023/12/20 06:02:53;;;;;;;7.27;1.83;;;15.80;64.10;;;;;;5025613;28;20442;-80
2023/12/20 06:05:31;;;;;;;8.43;2.53;;;15.80;63.90;;;;;;5025795;28;20430;-79
2023/12/20 06:08:02;;;;;;;4.90;2.10;;;15.80;64.10;;;;;;5022200;28;20442;-77
2023/12/20 06:10:33;;;;;;;7.70;2.00;;;15.80;63.80;;;;;;5015851;28;20459;-78
2023/12/20 06:13:04;;;;;;;6.83;2.57;;;15.80;64.00;;;;;;5024217;28;20452;-82
2023/12/20 06:15:41;;;;;;;6.77;2.37;;;15.80;64.00;;;;;;5018583;28;20476;-82
2023/12/20 06:18:11;;;;;;;10.33;2.33;;;15.80;64.10;;;;;;5024402;28;20427;-78
2023/12/20 06:20:48;;;;;;;6.70;2.17;;;15.80;63.90;;;;;;5021360;28;20965;-78
2023/12/20 06:23:27;;;;;;;10.73;2.23;;;15.80;64.10;;;;;;5023836;28;20494;-78
2023/12/20 06:25:57;;;;;;;9.33;2.57;;;15.80;64.10;;;;;;5025039;28;20447;-78
2023/12/20 06:28:31;;;;;;;9.27;2.30;;;15.80;64.20;;;;;;5021177;28;20436;-79
2023/12/20 06:31:15;;;;;;;8.57;1.87;;;15.80;64.00;;;;;;5020206;28;20538;-78
2023/12/20 06:33:57;;;;;;;5.87;2.00;;;15.80;64.10;;;;;;5024284;28;20489;-79
2023/12/20 06:36:37;;;;;;;7.07;2.10;;;15.80;64.10;;;;;;5015961;28;20424;-79
2023/12/20 06:39:20;;;;;;;10.00;2.73;;;15.80;64.00;;;;;;5015531;28;20467;-78
2023/12/20 06:41:48;;;;;;;7.63;2.40;;;15.80;63.90;;;;;;5017532;28;20521;-78
2023/12/20 06:44:18;;;;;;;5.97;2.03;;;15.80;63.90;;;;;;5025426;28;20456;-79
2023/12/20 06:46:53;;;;;;;8.90;2.10;;;15.80;64.10;;;;;;5026382;28;20510;-78
2023/12/20 06:49:24;;;;;;;9.27;2.40;;;15.80;64.10;;;;;;5015471;28;21057;-79
2023/12/20 06:51:53;;;;;;;6.73;2.70;;;15.80;63.80;;;;;;5019167;28;20448;-77
2023/12/20 06:54:28;;;;;;;6.97;2.00;;;15.80;64.10;;;;;;5030990;28;20475;-79
2023/12/20 06:56:56;;;;;;;6.60;2.30;;;15.80;64.30;;;;;;5025574;28;20451;-80
2023/12/20 06:59:26;;;;;;;6.67;2.10;;;15.80;63.90;;;;;;5026797;28;20459;-78
2023/12/20 07:01:54;;;;;;;7.73;2.00;;;15.80;64.10;;;;;;5022700;28;20443;-77
2023/12/20 07:04:22;;;;;;;6.03;2.27;;;15.80;64.20;;;;;;5025599;28;20445;-81
2023/12/20 07:06:57;;;;;;;6.10;2.10;;;15.80;63.90;;;;;;5015289;28;20479;-81
2023/12/20 07:09:27;;;;;;;9.33;2.40;;;15.80;64.10;;;;;;5017294;28;20522;-79
2023/12/20 07:11:55;;;;;;;7.67;2.53;;;15.80;64.40;;;;;;5021389;28;20479;-80
2023/12/20 07:14:23;;;;;;;6.97;2.50;;;15.80;64.10;;;;;;5028078;28;20552;-78
2023/12/20 07:16:51;;;;;;;8.03;2.40;;;15.80;64.30;;;;;;5026466;28;20472;-78
2023/12/20 07:26:05;;;;;;;11.30;2.70;;;15.80;64.40;;;;;;4913593;29;20442;-79
2023/12/20 07:29:35;;;;;;;4.30;2.10;;;15.80;64.80;;;;;;4952260;28;20486;-79
2023/12/20 07:36:33;;;;;;;8.37;2.77;;;15.80;64.80;;;;;;4952662;28;20526;-80
2023/12/20 07:39:18;;;;;;;8.77;2.27;;;15.80;64.80;;;;;;4969670;28;20478;-79
2023/12/20 07:41:57;;;;;;;4.43;2.37;;;15.80;64.80;;;;;;4986212;28;20540;-77
2023/12/20 07:44:49;;;;;;;9.47;2.80;;;15.80;64.80;;;;;;5000123;28;20463;-77
2023/12/20 07:47:21;;;;;;;8.83;2.60;;;15.80;64.90;;;;;;5012458;28;20449;-78
2023/12/20 07:49:51;;;;;;;12.43;2.97;;;15.80;64.50;;;;;;5009336;28;20880;-77
2023/12/20 07:52:22;;;;;;;16.43;3.50;;;15.80;64.60;;;;;;5013771;28;20457;-77
2023/12/20 07:54:53;;;;;;;9.53;2.67;;;15.80;64.40;;;;;;5002556;28;20477;-79
2023/12/20 07:57:25;;;;;;;7.57;2.03;;;15.80;64.30;;;;;;5013425;28;20528;-77
2023/12/20 08:00:00;;;;;;;12.53;3.13;;;15.80;64.10;;;;;;5016815;28;20528;-78
2023/12/20 08:02:28;;;;;;;7.17;2.10;;;15.80;64.40;;;;;;5016059;28;20452;-77
2023/12/20 08:05:13;;;;;;;5.93;2.60;;;15.80;63.90;;;;;;5013285;28;20851;-78
2023/12/20 08:07:55;;;;;;;12.13;2.90;;;15.80;64.10;;;;;;5012664;28;20479;-78
2023/12/20 08:10:24;;;;;;;8.00;2.63;;;15.80;63.80;;;;;;5013293;28;20482;-77
2023/12/20 08:12:53;;;;;;;11.60;3.10;;;15.80;64.20;;;;;;5013178;28;20428;-77
2023/12/20 08:15:22;;;;;;;10.33;2.80;;;15.80;64.10;;;;;;5014496;28;20476;-78
2023/12/20 08:17:51;;;;;;;11.97;3.00;;;15.90;64.30;;;;;;5014366;28;20449;-78
2023/12/20 08:20:20;;;;;;;6.00;2.47;;;15.90;64.60;;;;;;5015287;28;20559;-78
2023/12/20 08:22:59;;;;;;;16.63;3.23;;;15.90;64.10;;;;;;5015871;28;20448;-78
2023/12/20 08:25:28;;;;;;;8.93;2.30;;;15.90;64.60;;;;;;5016020;28;20471;-77
2023/12/20 08:27:58;;;;;;;13.53;3.23;;;15.90;64.40;;;;;;5014616;28;20444;-78
2023/12/20 08:30:26;;;;;;;9.10;3.10;;;15.90;64.50;;;;;;5015553;28;20472;-80
2023/12/20 08:32:55;;;;;;;8.70;2.97;;;15.90;64.80;;;;;;5016253;28;20527;-78
2023/12/20 08:35:24;;;;;;;8.40;2.43;;;15.90;64.40;;;;;;5014958;28;20563;-78
2023/12/20 08:37:52;;;;;;;4.87;2.17;;;15.90;64.80;;;;;;5014924;28;20461;-78
2023/12/20 08:40:20;;;;;;;10.93;3.07;;;16.00;64.60;;;;;;5015491;28;20472;-78
2023/12/20 08:42:48;;;;;;;5.43;1.97;;;15.90;64.70;;;;;;5015921;28;20440;-77
2023/12/20 08:45:18;;;;;;;7.17;2.50;;;16.00;65.00;;;;;;5014970;28;20451;-78
2023/12/20 08:47:46;;;;;;;13.50;2.77;;;16.00;64.80;;;;;;5013219;28;20475;-78
2023/12/20 08:50:15;;;;;;;10.77;2.70;;;15.90;64.80;;;;;;5013492;28;20464;-78
2023/12/20 08:52:43;;;;;;;8.00;2.93;;;15.90;64.40;;;;;;5014569;28;20448;-77
2023/12/20 08:55:12;;;;;;;11.63;2.93;;;15.90;64.80;;;;;;5015105;28;20471;-77
2023/12/20 08:57:41;;;;;;;11.20;3.00;;;16.00;64.80;;;;;;5015203;28;20478;-77
2023/12/20 09:00:10;;;;;;;11.67;2.70;;;16.00;65.10;;;;;;5019803;28;20469;-77
2023/12/20 09:02:40;;;;;;;9.33;2.30;;;16.00;64.80;;;;;;5016269;28;20440;-77
2023/12/20 09:05:08;;;;;;;7.97;2.83;;;15.90;64.70;;;;;;5013020;28;20528;-77
2023/12/20 09:07:36;;;;;;;11.00;3.10;;;16.00;64.80;;;;;;5012707;28;20847;-77
2023/12/20 09:10:05;;;;;;;11.53;3.37;;;16.00;65.10;;;;;;5015184;28;20464;-78
2023/12/20 09:12:34;;;;;;;7.07;2.33;;;16.10;65.20;;;;;;5016457;28;20448;-78
2023/12/20 09:15:03;;;;;;;11.13;2.67;;;16.10;65.00;;;;;;5017255;28;20453;-78
2023/12/20 09:17:30;;;;;;;13.67;3.70;;;16.10;65.00;;;;;;5015234;28;20445;-78
2023/12/20 09:20:06;;;;;;;8.30;2.50;;;16.20;64.90;;;;;;5014931;28;20506;-78
2023/12/20 09:22:34;;;;;;;10.20;3.07;;;16.20;64.50;;;;;;5014881;28;20436;-78
2023/12/20 09:25:03;;;;;;;12.47;3.10;;;16.20;64.80;;;;;;5015301;28;20500;-78
2023/12/20 09:27:31;;;;;;;10.47;2.87;;;16.10;64.60;;;;;;5014843;28;20451;-78
2023/12/20 09:30:00;;;;;;;5.57;2.07;;;16.10;64.80;;;;;;5014776;28;20547;-78
2023/12/20 09:32:27;;;;;;;4.77;2.40;;;16.10;64.80;;;;;;5015289;28;20439;-78
2023/12/20 09:34:56;;;;;;;5.57;2.50;;;16.10;65.00;;;;;;5015462;28;20467;-78
2023/12/20 09:37:27;;;;;;;8.20;2.73;;;16.00;65.10;;;;;;5013971;28;20476;-78
2023/12/20 09:39:55;;;;;;;6.10;2.40;;;16.00;65.30;;;;;;5014822;28;20460;-78
2023/12/20 09:42:25;;;;;;;7.90;2.20;;;16.00;65.00;;;;;;5015200;28;20445;-78
2023/12/20 09:44:53;;;;;;;7.53;2.87;;;16.00;65.10;;;;;;5014471;28;20444;-78
2023/12/20 09:47:21;;;;;;;8.43;2.53;;;16.00;65.30;;;;;;5014030;28;20491;-78
2023/12/20 09:49:49;;;;;;;11.07;2.37;;;16.00;65.50;;;;;;5014819;28;20496;-78
2023/12/20 09:52:18;;;;;;;7.17;2.57;;;16.00;65.20;;;;;;5015319;28;20448;-78
2023/12/20 09:54:48;;;;;;;4.77;2.50;;;16.00;65.30;;;;;;5014121;28;20449;-78
2023/12/20 09:57:17;;;;;;;5.73;2.73;;;16.00;65.10;;;;;;5013595;28;20568;-78
2023/12/20 09:59:45;;;;;;;7.77;2.13;;;15.90;64.90;;;;;;5014696;28;20491;-78
2023/12/20 10:02:14;;;;;;;12.97;2.57;;;15.90;64.90;;;;;;5015033;28;20984;-78
2023/12/20 10:04:43;;;;;;;6.00;2.33;;;15.90;65.10;;;;;;5015791;28;20517;-78
2023/12/20 10:07:12;;;;;;;8.83;2.80;;;15.90;65.10;;;;;;5015843;28;20483;-78
2023/12/20 10:09:41;;;;;;;7.10;2.80;;;15.90;65.10;;;;;;5018417;28;20487;-78
2023/12/20 10:12:10;;;;;;;4.50;2.07;;;16.00;65.20;;;;;;5018868;28;20483;-78
2023/12/20 10:14:39;;;;;;;9.00;2.90;;;16.00;65.20;;;;;;5016231;28;20475;-77
2023/12/20 10:17:08;;;;;;;6.07;2.03;;;16.00;64.70;;;;;;5015348;28;20484;-78
2023/12/20 10:19:38;;;;;;;7.50;2.53;;;16.00;65.00;;;;;;5014657;28;20500;-78
2023/12/20 10:22:06;;;;;;;5.20;2.13;;;16.00;65.20;;;;;;5014234;28;20480;-77
2023/12/20 10:24:34;;;;;;;6.20;2.20;;;16.10;65.30;;;;;;5013622;28;20490;-77
2023/12/20 10:27:04;;;;;;;6.53;2.43;;;16.20;65.30;;;;;;5015081;28;20440;-78
2023/12/20 10:29:34;;;;;;;2.80;1.80;;;16.20;65.10;;;;;;5015226;28;20555;-78
2023/12/20 10:32:23;;;;;;;6.30;2.23;;;16.30;64.90;;;;;;5017289;28;20432;-78
2023/12/20 10:34:52;;;;;;;4.70;1.97;;;16.40;64.50;;;;;;5013476;28;20515;-77
2023/12/20 10:37:20;;;;;;;4.60;1.87;;;16.40;64.80;;;;;;5012788;28;20994;-77
2023/12/20 10:39:50;;;;;;;3.63;2.33;;;16.50;65.10;;;;;;5013169;28;20532;-78
2023/12/20 10:42:19;;;;;;;4.07;2.30;;;16.70;65.30;;;;;;5013204;28;20463;-78
2023/12/20 10:44:48;;;;;;;5.13;2.30;;;17.00;65.60;;;;;;5013857;28;20479;-78
2023/12/20 10:47:17;;;;;;;6.60;2.23;;;17.20;65.90;;;;;;5014058;28;20467;-78
2023/12/20 10:49:45;;;;;;;3.30;1.83;;;17.50;65.60;;;;;;5015717;28;20507;-78
2023/12/20 10:52:13;;;;;;;3.53;2.27;;;17.60;65.10;;;;;;5015212;28;20526;-78
2023/12/20 10:54:41;;;;;;;5.23;2.13;;;17.80;65.30;;;;;;5014960;28;20439;-78
2023/12/20 10:57:09;;;;;;;6.47;2.40;;;18.00;65.50;;;;;;5013476;28;20503;-77
2023/12/20 10:59:38;;;;;;;8.90;2.77;;;18.30;65.60;;;;;;5014557;28;20460;-78
2023/12/20 11:02:07;;;;;;;8.40;2.77;;;18.40;65.60;;;;;;5014050;28;20468;-78
2023/12/20 11:04:40;;;;;;;5.73;2.10;;;18.70;65.60;;;;;;5014876;28;20472;-78
2023/12/20 11:07:16;;;;;;;3.20;2.07;;;18.80;65.30;;;;;;5014105;28;20448;-77
2023/12/20 11:09:47;;;;;;;5.27;2.40;;;18.90;64.80;;;;;;5016135;28;20990;-78
2023/12/20 11:12:18;;;;;;;3.80;2.27;;;18.80;64.60;;;;;;5013790;28;20440;-78
2023/12/20 11:14:47;;;;;;;5.13;2.20;;;18.90;65.10;;;;;;5013656;28;20452;-79
2023/12/20 11:17:18;;;;;;;4.20;2.07;;;18.90;64.80;;;;;;5013254;28;20468;-78
2023/12/20 11:20:12;;;;;;;4.47;2.20;;;19.00;65.30;;;;;;5013654;28;20488;-78
2023/12/20 11:22:41;;;;;;;3.90;2.20;;;19.20;65.10;;;;;;5013970;28;20444;-78
2023/12/20 11:25:10;;;;;;;4.27;2.03;;;19.30;65.30;;;;;;5014617;28;20540;-78
2023/12/20 11:27:42;;;;;;;4.73;2.13;;;19.50;65.10;;;;;;5014784;28;20491;-78
2023/12/20 11:30:12;;;;;;;3.57;1.73;;;19.70;64.90;;;;;;5013400;28;20554;-78
2023/12/20 11:32:42;;;;;;;6.27;2.40;;;19.80;65.00;;;;;;5017125;28;20452;-78
2023/12/20 11:35:20;;;;;;;9.23;2.13;;;19.90;64.80;;;;;;5016684;28;20458;-78
2023/12/20 11:37:49;;;;;;;3.80;1.87;;;20.10;64.90;;;;;;5016182;28;20476;-78
2023/12/20 11:40:21;;;;;;;4.53;2.00;;;20.20;64.50;;;;;;5016918;28;20475;-78
2023/12/20 11:42:50;;;;;;;2.73;2.20;;;20.40;64.60;;;;;;5018472;28;20943;-78
2023/12/20 11:45:21;;;;;;;4.10;2.10;;;20.50;64.20;;;;;;5016372;28;20472;-78
2023/12/20 11:47:53;;;;;;;3.33;1.83;;;20.60;64.10;;;;;;5016904;28;20437;-78
2023/12/20 11:50:22;;;;;;;3.60;1.70;;;20.80;63.60;;;;;;5016864;28;20430;-78
2023/12/20 11:52:51;;;;;;;4.70;2.17;;;20.90;63.60;;;;;;5016574;28;20424;-78
2023/12/20 11:55:19;;;;;;;7.63;2.63;;;21.00;63.70;;;;;;5018346;28;20444;-78
2023/12/20 11:57:48;;;;;;;4.47;1.90;;;21.20;63.20;;;;;;5020821;28;20472;-78
2023/12/20 12:00:17;;;;;;;3.60;2.40;;;21.40;62.90;;;;;;5018103;28;20472;-78
2023/12/20 12:02:57;;;;;;;5.50;2.57;;;21.50;62.80;;;;;;5016834;28;20482;-78
2023/12/20 12:05:25;;;;;;;2.73;1.90;;;21.70;62.10;;;;;;5017026;28;20486;-78
2023/12/20 12:07:54;;;;;;;4.80;2.07;;;21.70;61.90;;;;;;5015367;28;20939;-77
2023/12/20 12:10:22;;;;;;;5.27;2.10;;;21.70;62.00;;;;;;5015573;28;20488;-78
2023/12/20 12:12:50;;;;;;;3.00;1.70;;;21.70;61.90;;;;;;5016212;28;20440;-78
2023/12/20 12:15:18;;;;;;;2.87;1.80;;;21.70;61.90;;;;;;5018490;28;20446;-78
2023/12/20 12:17:53;;;;;;;4.00;1.90;;;21.70;61.90;;;;;;5015790;28;20504;-78
2023/12/20 12:20:23;;;;;;;3.70;1.90;;;21.50;61.80;;;;;;5015780;28;21090;-78
2023/12/20 12:22:59;;;;;;;8.47;2.60;;;21.50;62.10;;;;;;5015253;28;20543;-77
2023/12/20 12:25:27;;;;;;;6.77;2.77;;;21.40;62.00;;;;;;5014930;28;20435;-77
2023/12/20 12:27:56;;;;;;;6.00;2.77;;;21.20;61.80;;;;;;5015056;28;20455;-78
2023/12/20 12:30:23;;;;;;;4.43;2.40;;;21.00;62.00;;;;;;5015882;28;20500;-78
2023/12/20 12:32:56;;;;;;;7.50;3.03;;;20.80;62.20;;;;;;5015368;28;20444;-78
2023/12/20 12:35:25;;;;;;;5.10;3.00;;;20.60;62.40;;;;;;5014501;28;20415;-77
2023/12/20 12:37:53;;;;;;;5.43;3.07;;;20.40;62.50;;;;;;5014670;28;20567;-77
2023/12/20 12:40:21;;;;;;;5.20;3.20;;;20.30;62.80;;;;;;5015612;28;20464;-78
2023/12/20 12:42:49;;;;;;;6.20;2.87;;;20.20;63.10;;;;;;5015510;28;20440;-78
2023/12/20 12:45:18;;;;;;;5.17;3.00;;;20.00;63.30;;;;;;5015533;28;20432;-77
2023/12/20 12:47:46;;;;;;;7.77;3.40;;;19.90;63.40;;;;;;5014423;28;20433;-77
2023/12/20 12:50:14;;;;;;;7.57;3.60;;;19.80;63.70;;;;;;5014234;28;20511;-77
2023/12/20 12:52:43;;;;;;;6.73;3.67;;;19.70;63.90;;;;;;5014103;28;20468;-77
2023/12/20 12:55:12;;;;;;;13.73;4.40;;;19.60;64.00;;;;;;5015079;28;20472;-78
2023/12/20 12:57:39;;;;;;;7.00;3.63;;;19.60;64.20;;;;;;5018105;28;20538;-78
2023/12/20 13:00:09;;;;;;;8.17;4.07;;;19.60;64.30;;;;;;5022048;28;20471;-78
2023/12/20 13:02:37;;;;;;;6.03;3.97;;;19.70;64.40;;;;;;5025222;28;20927;-78
2023/12/20 13:05:06;;;;;;;8.03;3.30;;;19.80;64.00;;;;;;5020386;28;20552;-77
2023/12/20 13:07:34;;;;;;;5.67;3.70;;;19.70;63.70;;;;;;5019522;28;20441;-78
2023/12/20 13:10:05;;;;;;;11.90;4.13;;;19.80;63.60;;;;;;5018694;28;20467;-78
2023/12/20 13:12:34;;;;;;;5.73;3.40;;;19.70;63.20;;;;;;5019221;28;20501;-78